createdAt,value
2018-01-22T00:00:05.454Z,33.5
2018-01-22T00:02:05.209Z,33.5
2018-01-22T00:04:05.982Z,33.5
2018-01-22T00:06:13.323Z,33.4
2018-01-22T00:08:05.141Z,33.4
2018-01-22T00:10:05.907Z,33.5
2018-01-22T00:12:07.697Z,33.5
2018-01-22T00:14:05.500Z,33.3
2018-01-22T00:16:05.315Z,33.5
2018-01-22T00:18:05.305Z,33.5
2018-01-22T00:20:05.633Z,33.5
2018-01-22T00:22:05.364Z,33.5
2018-01-22T00:24:07.720Z,33.5
2018-01-22T00:26:05.493Z,33.5
2018-01-22T00:28:05.291Z,33.6
2018-01-22T00:30:06.032Z,33.5
2018-01-22T00:32:10.918Z,33.5
2018-01-22T00:34:05.182Z,33.5
2018-01-22T00:36:05.984Z,33.5
2018-01-22T00:38:08.339Z,33.4
2018-01-22T00:40:05.116Z,33.4
2018-01-22T00:42:05.403Z,33.4
2018-01-22T00:44:05.302Z,33.4
2018-01-22T00:46:05.080Z,33.5
2018-01-22T00:48:05.353Z,33.5
2018-01-22T00:50:05.113Z,33.4
2018-01-22T00:52:05.892Z,33.5
2018-01-22T00:54:05.673Z,33.5
2018-01-22T00:56:05.479Z,33.5
2018-01-22T00:58:05.284Z,33.5
2018-01-22T01:00:05.020Z,33.5
2018-01-22T01:02:05.907Z,33.5
2018-01-22T01:04:05.686Z,33.5
2018-01-22T01:06:05.481Z,33.5
2018-01-22T01:08:05.265Z,33.5
2018-01-22T01:10:06.025Z,33.5
2018-01-22T01:12:05.842Z,33.5
2018-01-22T01:14:05.579Z,33.5
2018-01-22T01:16:05.322Z,33.5
2018-01-22T01:18:05.823Z,33.5
2018-01-22T01:20:05.594Z,33.5
2018-01-22T01:22:05.919Z,33.5
2018-01-22T01:24:05.688Z,33.5
2018-01-22T01:26:05.425Z,33.5
2018-01-22T01:28:05.238Z,33.5
2018-01-22T01:30:08.579Z,33.5
2018-01-22T01:32:05.350Z,33.5
2018-01-22T01:34:05.115Z,33.5
2018-01-22T01:36:05.380Z,33.5
2018-01-22T01:38:05.669Z,33.5
2018-01-22T01:40:05.386Z,33.5
2018-01-22T01:42:05.179Z,33.7
2018-01-22T01:44:08.012Z,33.3
2018-01-22T01:46:05.859Z,33.5
2018-01-22T01:48:05.642Z,33.5
2018-01-22T01:50:05.418Z,33.5
2018-01-22T01:52:05.209Z,33.5
2018-01-22T01:54:05.983Z,33.5
2018-01-22T01:56:10.800Z,33.5
2018-01-22T01:58:08.221Z,33.5
2018-01-22T02:00:08.494Z,33.5
2018-01-22T02:02:05.259Z,33.5
2018-01-22T02:04:05.993Z,33.5
2018-01-22T02:06:05.228Z,33.5
2018-01-22T02:08:05.996Z,33.5
2018-01-22T02:10:08.325Z,33.6
2018-01-22T02:12:05.121Z,33.3
2018-01-22T02:14:05.923Z,33.3
2018-01-22T02:16:05.244Z,33.6
2018-01-22T02:18:12.855Z,33.3
2018-01-22T02:20:05.149Z,33.5
2018-01-22T02:22:05.906Z,33.3
2018-01-22T02:24:05.724Z,33.6
2018-01-22T02:26:05.544Z,33.5
2018-01-22T02:28:07.876Z,33.5
2018-01-22T02:30:05.694Z,33.6
2018-01-22T02:32:10.509Z,33.3
2018-01-22T02:34:07.785Z,33.5
2018-01-22T02:36:05.565Z,33.5
2018-01-22T02:38:05.490Z,33.4
2018-01-22T02:40:05.241Z,33.5
2018-01-22T02:42:05.512Z,33.5
2018-01-22T02:44:05.309Z,33.5
2018-01-22T02:46:05.040Z,33.5
2018-01-22T02:48:05.790Z,33.6
2018-01-22T02:50:05.531Z,33.5
2018-01-22T02:52:12.873Z,33.5
2018-01-22T02:54:05.653Z,33.3
2018-01-22T02:56:08.479Z,33.5
2018-01-22T02:58:07.814Z,33.6
2018-01-22T03:00:08.060Z,33.5
2018-01-22T03:02:05.792Z,33.5
2018-01-22T03:04:10.688Z,33.5
2018-01-22T03:06:07.950Z,33.6
2018-01-22T03:08:05.724Z,33.6
2018-01-22T03:10:08.512Z,33.5
2018-01-22T03:12:05.345Z,33.5
2018-01-22T03:14:05.181Z,33.5
2018-01-22T03:16:05.959Z,33.5
2018-01-22T03:18:05.507Z,33.5
2018-01-22T03:20:05.295Z,33.6
2018-01-22T03:22:05.986Z,33.5
2018-01-22T03:24:08.267Z,33.3
2018-01-22T03:26:06.013Z,33.5
2018-01-22T03:28:05.313Z,33.6
2018-01-22T03:30:05.151Z,33.5
2018-01-22T03:32:08.097Z,33.5
2018-01-22T03:34:08.311Z,33.6
2018-01-22T03:36:05.051Z,33.6
2018-01-22T03:38:05.366Z,33.5
2018-01-22T03:40:05.127Z,33.6
2018-01-22T03:42:11.061Z,33.5
2018-01-22T03:44:05.787Z,33.5
2018-01-22T03:46:05.563Z,33.5
2018-01-22T03:48:05.417Z,33.6
2018-01-22T03:50:05.186Z,33.5
2018-01-22T03:52:05.973Z,33.5
2018-01-22T03:54:05.713Z,33.6
2018-01-22T03:56:05.442Z,33.6
2018-01-22T03:58:05.189Z,33.6
2018-01-22T04:00:08.543Z,33.6
2018-01-22T04:02:05.325Z,33.6
2018-01-22T04:04:07.663Z,33.6
2018-01-22T04:06:05.400Z,33.4
2018-01-22T04:08:05.168Z,33.6
2018-01-22T04:10:08.437Z,33.6
2018-01-22T04:12:05.200Z,33.6
2018-01-22T04:14:05.977Z,33.6
2018-01-22T04:16:08.280Z,33.6
2018-01-22T04:18:05.293Z,33.6
2018-01-22T04:20:07.629Z,33.6
2018-01-22T04:22:05.425Z,33.6
2018-01-22T04:24:10.218Z,33.6
2018-01-22T04:26:05.967Z,33.6
2018-01-22T04:28:05.763Z,33.6
2018-01-22T04:30:05.092Z,33.6
2018-01-22T04:32:08.390Z,33.6
2018-01-22T04:34:05.657Z,33.6
2018-01-22T04:36:05.417Z,33.6
2018-01-22T04:38:05.178Z,33.6
2018-01-22T04:40:12.499Z,33.6
2018-01-22T04:42:05.618Z,33.6
2018-01-22T04:44:06.032Z,33.6
2018-01-22T04:46:07.806Z,33.6
2018-01-22T04:48:05.568Z,33.6
2018-01-22T04:50:05.384Z,33.6
2018-01-22T04:52:05.123Z,33.6
2018-01-22T04:54:05.340Z,33.6
2018-01-22T04:56:05.086Z,33.6
2018-01-22T04:58:05.864Z,33.6
2018-01-22T05:00:05.711Z,33.6
2018-01-22T05:02:05.569Z,33.6
2018-01-22T05:04:05.509Z,33.6
2018-01-22T05:06:06.141Z,33.6
2018-01-22T05:08:05.875Z,33.6
2018-01-22T05:10:05.628Z,33.6
2018-01-22T05:12:05.956Z,33.6
2018-01-22T05:14:05.791Z,33.6
2018-01-22T05:16:06.028Z,33.6
2018-01-22T05:18:05.996Z,33.6
2018-01-22T05:20:05.711Z,33.6
2018-01-22T05:22:05.470Z,33.6
2018-01-22T05:24:05.855Z,33.6
2018-01-22T05:26:05.099Z,33.6
2018-01-22T05:28:05.853Z,33.6
2018-01-22T05:30:05.655Z,33.6
2018-01-22T05:32:07.961Z,33.6
2018-01-22T05:34:05.694Z,33.6
2018-01-22T05:36:05.449Z,33.7
2018-01-22T05:38:07.705Z,33.6
2018-01-22T05:40:05.986Z,33.6
2018-01-22T05:42:05.768Z,33.6
2018-01-22T05:44:05.432Z,33.6
2018-01-22T05:46:05.963Z,33.6
2018-01-22T05:48:05.959Z,33.7
2018-01-22T05:50:08.514Z,33.7
2018-01-22T05:52:05.292Z,33.7
2018-01-22T05:54:05.532Z,33.7
2018-01-22T05:56:08.679Z,33.7
2018-01-22T05:58:08.542Z,33.6
2018-01-22T06:00:08.135Z,33.9
2018-01-22T06:02:05.910Z,33.6
2018-01-22T06:04:05.709Z,33.8
2018-01-22T06:06:07.938Z,33.7
2018-01-22T06:08:05.980Z,33.7
2018-01-22T06:10:05.693Z,33.6
2018-01-22T06:12:05.414Z,33.6
2018-01-22T06:14:05.513Z,33.6
2018-01-22T06:16:07.803Z,33.9
2018-01-22T06:18:05.733Z,33.9
2018-01-22T06:20:06.246Z,33.6
2018-01-22T06:22:05.546Z,33.9
2018-01-22T06:24:05.792Z,34
2018-01-22T06:26:06.601Z,33.7
2018-01-22T06:28:05.108Z,33.9
2018-01-22T06:30:05.834Z,33.9
2018-01-22T06:32:05.122Z,33.9
2018-01-22T06:34:05.956Z,33.7
2018-01-22T06:36:05.855Z,33.9
2018-01-22T06:38:05.156Z,33.9
2018-01-22T06:40:05.896Z,33.9
2018-01-22T06:42:05.640Z,33.9
2018-01-22T06:44:05.478Z,33.9
2018-01-22T06:46:05.279Z,33.9
2018-01-22T06:48:08.565Z,33.9
2018-01-22T06:50:05.312Z,33.9
2018-01-22T06:52:05.066Z,34
2018-01-22T06:54:05.843Z,34
2018-01-22T06:56:05.635Z,34
2018-01-22T06:58:05.917Z,34
2018-01-22T07:00:05.702Z,34
2018-01-22T07:02:10.459Z,34
2018-01-22T07:04:05.216Z,34
2018-01-22T07:06:05.950Z,34
2018-01-22T07:08:05.973Z,33.9
2018-01-22T07:10:05.737Z,34
2018-01-22T07:12:10.609Z,34
2018-01-22T07:14:05.395Z,34
2018-01-22T07:16:05.174Z,34
2018-01-22T07:18:05.107Z,34
2018-01-22T07:20:05.832Z,34
2018-01-22T07:22:05.571Z,34
2018-01-22T07:24:05.330Z,34
2018-01-22T07:26:07.597Z,34
2018-01-22T07:28:05.578Z,34
2018-01-22T07:30:05.305Z,34
2018-01-22T07:32:08.126Z,34
2018-01-22T07:34:05.466Z,34
2018-01-22T07:36:05.218Z,34
2018-01-22T07:38:08.516Z,34
2018-01-22T07:40:07.825Z,34
2018-01-22T07:42:05.820Z,34.1
2018-01-22T07:44:05.922Z,34.1
2018-01-22T07:46:05.619Z,34
2018-01-22T07:48:13.267Z,34
2018-01-22T07:50:08.532Z,34
2018-01-22T07:52:05.081Z,34
2018-01-22T07:54:05.900Z,34
2018-01-22T07:56:08.476Z,34
2018-01-22T07:58:07.750Z,33.9
2018-01-22T08:00:05.055Z,34
2018-01-22T08:02:05.825Z,34
2018-01-22T08:04:05.667Z,34
2018-01-22T08:06:05.402Z,34
2018-01-22T08:08:05.262Z,34
2018-01-22T08:10:05.109Z,34
2018-01-22T08:12:08.416Z,34
2018-01-22T08:14:05.535Z,34
2018-01-22T08:16:08.416Z,34.1
2018-01-22T08:18:07.933Z,34
2018-01-22T08:20:08.132Z,34
2018-01-22T08:22:08.401Z,34.1
2018-01-22T08:24:05.146Z,34.1
2018-01-22T08:26:05.920Z,34.1
2018-01-22T08:28:05.238Z,34
2018-01-22T08:30:06.034Z,34.1
2018-01-22T08:32:05.867Z,34.1
2018-01-22T08:34:05.207Z,34.1
2018-01-22T08:36:05.959Z,34.1
2018-01-22T08:38:05.723Z,34
2018-01-22T08:40:08.566Z,34.3
2018-01-22T08:42:05.428Z,34
2018-01-22T08:44:07.707Z,34.1
2018-01-22T08:46:05.416Z,34.1
2018-01-22T08:48:05.180Z,34.3
2018-01-22T08:50:05.982Z,34.3
2018-01-22T08:52:05.678Z,34.3
2018-01-22T08:54:05.779Z,34.3
2018-01-22T08:56:05.565Z,34.2
2018-01-22T08:58:05.307Z,34.3
2018-01-22T09:00:05.043Z,34.2
2018-01-22T09:02:08.110Z,34.3
2018-01-22T09:04:05.392Z,34.3
2018-01-22T09:06:05.300Z,34.2
2018-01-22T09:08:05.887Z,34.2
2018-01-22T09:10:05.617Z,34.2
2018-01-22T09:12:05.383Z,34.2
2018-01-22T09:14:07.672Z,34.2
2018-01-22T09:16:05.460Z,34.2
2018-01-22T09:18:05.415Z,34.2
2018-01-22T09:20:10.197Z,34.2
2018-01-22T09:22:05.912Z,34.2
2018-01-22T09:24:05.292Z,34.3
2018-01-22T09:26:05.095Z,34.3
2018-01-22T09:28:05.866Z,34.3
2018-01-22T09:30:05.643Z,34.3
2018-01-22T09:32:05.665Z,34.3
2018-01-22T09:34:05.357Z,34.3
2018-01-22T09:36:12.885Z,34.3
2018-01-22T09:38:06.577Z,34.3
2018-01-22T09:40:05.451Z,34.3
2018-01-22T09:42:06.725Z,34.3
2018-01-22T09:44:05.531Z,34.3
2018-01-22T09:46:08.049Z,34.3
2018-01-22T09:48:05.779Z,34.3
2018-01-22T09:50:06.567Z,34.3
2018-01-22T09:52:05.774Z,34.3
2018-01-22T09:54:13.468Z,34.5
2018-01-22T09:56:05.360Z,34.5
2018-01-22T09:58:05.188Z,34.5
2018-01-22T10:00:05.954Z,34.5
2018-01-22T10:02:05.816Z,34.5
2018-01-22T10:04:05.578Z,34.5
2018-01-22T10:06:05.324Z,34.5
2018-01-22T10:08:05.809Z,34.5
2018-01-22T10:10:09.102Z,34.5
2018-01-22T10:12:05.901Z,34.3
2018-01-22T10:14:07.319Z,34.5
2018-01-22T10:16:05.738Z,34.5
2018-01-22T10:18:08.279Z,34.5
2018-01-22T10:20:07.928Z,34.5
2018-01-22T10:22:13.266Z,34.5
2018-01-22T10:24:05.136Z,34.5
2018-01-22T10:26:18.237Z,34.5
2018-01-22T10:28:08.147Z,34.5
2018-01-22T10:30:05.901Z,34.5
2018-01-22T10:32:05.702Z,34.5
2018-01-22T10:34:08.401Z,34.5
2018-01-22T10:36:10.650Z,34.5
2018-01-22T10:38:08.226Z,34.5
2018-01-22T10:40:06.002Z,34.5
2018-01-22T10:42:13.378Z,34.5
2018-01-22T10:44:09.143Z,34.7
2018-01-22T10:46:08.965Z,34.5
2018-01-22T10:48:05.615Z,34.5
2018-01-22T10:50:05.925Z,34.5
2018-01-22T10:52:05.744Z,34.5
2018-01-22T10:54:06.746Z,34.5
2018-01-22T10:56:13.862Z,34.5
2018-01-22T10:58:06.078Z,34.8
2018-01-22T11:00:05.035Z,34.6
2018-01-22T11:02:11.103Z,34.7
2018-01-22T11:04:10.452Z,34.7
2018-01-22T11:06:05.205Z,34.7
2018-01-22T11:08:12.698Z,34.7
2018-01-22T11:10:08.509Z,34.7
2018-01-22T11:12:05.573Z,34.7
2018-01-22T11:14:08.056Z,34.8
2018-01-22T11:16:05.825Z,34.8
2018-01-22T11:18:05.785Z,34.7
2018-01-22T11:20:05.758Z,34.8
2018-01-22T11:22:06.188Z,34.7
2018-01-22T11:24:05.937Z,34.7
2018-01-22T11:26:05.795Z,34.7
2018-01-22T11:28:05.604Z,34.7
2018-01-22T11:30:05.835Z,34.8
2018-01-22T11:32:05.592Z,34.7
2018-01-22T11:34:05.336Z,34.7
2018-01-22T11:36:06.502Z,34.7
2018-01-22T11:38:11.096Z,34.8
2018-01-22T11:40:05.860Z,34.8
2018-01-22T11:42:05.573Z,35
2018-01-22T11:44:05.610Z,34.7
2018-01-22T11:46:05.475Z,34.9
2018-01-22T11:48:05.742Z,34.8
2018-01-22T11:50:08.070Z,34.9
2018-01-22T11:52:06.035Z,34.9
2018-01-22T11:54:05.721Z,34.7
2018-01-22T11:56:10.705Z,34.5
2018-01-22T11:58:05.987Z,34.7
2018-01-22T12:00:05.776Z,34.6
2018-01-22T12:02:05.979Z,34.9
2018-01-22T12:04:05.638Z,34.8
2018-01-22T12:06:05.489Z,35
2018-01-22T12:08:05.266Z,35
2018-01-22T12:10:13.688Z,35
2018-01-22T12:12:05.503Z,35
2018-01-22T12:14:05.239Z,35
2018-01-22T12:16:06.096Z,35
2018-01-22T12:18:07.568Z,34.8
2018-01-22T12:20:05.648Z,34.8
2018-01-22T12:22:06.452Z,34.9
2018-01-22T12:24:05.409Z,34.8
2018-01-22T12:26:07.725Z,34.7
2018-01-22T12:28:07.539Z,34.7
2018-01-22T12:30:13.233Z,34.8
2018-01-22T12:32:10.825Z,34.9
2018-01-22T12:34:10.620Z,35.1
2018-01-22T12:36:05.348Z,35.1
2018-01-22T12:38:05.086Z,35.1
2018-01-22T12:40:05.989Z,35
2018-01-22T12:42:05.847Z,35.3
2018-01-22T12:44:05.225Z,35.2
2018-01-22T12:46:06.038Z,35.1
2018-01-22T12:48:08.342Z,35.3
2018-01-22T12:50:05.100Z,35.3
2018-01-22T12:52:05.922Z,35.2
2018-01-22T12:54:08.220Z,35.3
2018-01-22T12:56:05.055Z,35.3
2018-01-22T12:58:05.979Z,35.3
2018-01-22T13:00:05.723Z,35.4
2018-01-22T13:02:05.496Z,35.4
2018-01-22T13:04:05.523Z,35.6
2018-01-22T13:06:05.489Z,35.6
2018-01-22T13:08:05.230Z,35.8
2018-01-22T13:10:05.958Z,35.9
2018-01-22T13:12:05.742Z,35.8
2018-01-22T13:14:05.105Z,35.8
2018-01-22T13:16:05.873Z,36.2
2018-01-22T13:18:05.872Z,36.3
2018-01-22T13:20:10.673Z,36.4
2018-01-22T13:22:05.420Z,36.5
2018-01-22T13:24:07.718Z,36.4
2018-01-22T13:26:05.736Z,36.4
2018-01-22T13:28:05.516Z,36.4
2018-01-22T13:30:07.851Z,36.5
2018-01-22T13:32:05.172Z,36.5
2018-01-22T13:34:06.365Z,36.6
2018-01-22T13:36:13.163Z,36.6
2018-01-22T13:38:05.506Z,36.6
2018-01-22T13:40:06.677Z,37
2018-01-22T13:42:05.943Z,37.5
2018-01-22T13:44:05.728Z,37.5
2018-01-22T13:46:05.492Z,37.2
2018-01-22T13:48:05.349Z,37
2018-01-22T13:50:06.142Z,37
2018-01-22T13:52:08.930Z,37.6
2018-01-22T13:54:05.719Z,37.4
2018-01-22T13:56:05.513Z,37.3
2018-01-22T13:58:07.772Z,37.2
2018-01-22T14:00:05.139Z,36.9
2018-01-22T14:02:05.865Z,37.2
2018-01-22T14:04:05.106Z,36.9
2018-01-22T14:06:13.446Z,38
2018-01-22T14:08:07.779Z,38.1
2018-01-22T14:10:05.637Z,38.1
2018-01-22T14:12:07.954Z,37.9
2018-01-22T14:14:08.280Z,38.2
2018-01-22T14:16:05.073Z,37.9
2018-01-22T14:18:06.078Z,37.9
2018-01-22T14:20:06.161Z,37.6
2018-01-22T14:22:05.901Z,37.9
2018-01-22T14:24:05.741Z,37.1
2018-01-22T14:26:05.827Z,37.7
2018-01-22T14:28:08.081Z,38.6
2018-01-22T14:30:08.372Z,38.9
2018-01-22T14:32:15.301Z,39.3
2018-01-22T14:34:06.086Z,39.3
2018-01-22T14:36:05.783Z,39.4
2018-01-22T14:38:05.167Z,39.8
2018-01-22T14:40:11.007Z,40.2
2018-01-22T14:42:05.316Z,40.1
2018-01-22T14:44:05.132Z,40.5
2018-01-22T14:46:05.858Z,40.5
2018-01-22T14:48:05.613Z,40.6
2018-01-22T14:50:05.737Z,40.7
2018-01-22T14:52:10.604Z,41
2018-01-22T14:54:05.345Z,41
2018-01-22T14:56:05.112Z,41
2018-01-22T14:58:05.887Z,41.1
2018-01-22T15:00:05.619Z,41.5
2018-01-22T15:02:05.676Z,41.3
2018-01-22T15:04:07.965Z,41.5
2018-01-22T15:06:05.768Z,41.5
2018-01-22T15:08:05.548Z,41.4
2018-01-22T15:10:05.352Z,41.3
2018-01-22T15:12:05.736Z,41.1
2018-01-22T15:14:05.822Z,41.2
2018-01-22T15:16:07.692Z,41
2018-01-22T15:18:05.651Z,41
2018-01-22T15:20:05.573Z,41
2018-01-22T15:22:05.820Z,40.9
2018-01-22T15:24:05.608Z,40.9
2018-01-22T15:26:10.410Z,40.7
2018-01-22T15:28:07.702Z,40.7
2018-01-22T15:30:08.033Z,40.8
2018-01-22T15:32:05.836Z,40.6
2018-01-22T15:34:08.159Z,40.7
2018-01-22T15:36:05.163Z,40.8
2018-01-22T15:38:05.903Z,40
2018-01-22T15:40:05.680Z,39.5
2018-01-22T15:42:05.418Z,39.4
2018-01-22T15:44:07.969Z,38.8
2018-01-22T15:46:05.721Z,39.1
2018-01-22T15:48:08.164Z,38.9
2018-01-22T15:50:06.158Z,38.9
2018-01-22T15:52:05.853Z,38.7
2018-01-22T15:54:05.577Z,38.4
2018-01-22T15:56:05.434Z,38.4
2018-01-22T15:58:05.863Z,38.4
2018-01-22T16:00:05.647Z,38.1
2018-01-22T16:02:08.738Z,38
2018-01-22T16:04:05.494Z,38
2018-01-22T16:06:05.893Z,38
2018-01-22T16:08:05.912Z,38
2018-01-22T16:10:05.824Z,38
2018-01-22T16:12:05.630Z,37.9
2018-01-22T16:14:05.621Z,37.7
2018-01-22T16:16:05.336Z,37.9
2018-01-22T16:18:05.268Z,37.9
2018-01-22T16:20:08.550Z,38.3
2018-01-22T16:22:07.812Z,38.7
2018-01-22T16:24:05.533Z,38.7
2018-01-22T16:26:05.980Z,38.8
2018-01-22T16:28:05.754Z,38.8
2018-01-22T16:30:05.554Z,39.1
2018-01-22T16:32:07.831Z,39
2018-01-22T16:34:05.549Z,39
2018-01-22T16:36:05.372Z,39.3
2018-01-22T16:38:10.215Z,39
2018-01-22T16:40:07.047Z,39
2018-01-22T16:42:05.446Z,39.2
2018-01-22T16:44:09.033Z,39.2
2018-01-22T16:46:05.770Z,39
2018-01-22T16:48:10.722Z,39
2018-01-22T16:50:06.027Z,39
2018-01-22T16:52:05.821Z,39
2018-01-22T16:54:05.544Z,39
2018-01-22T16:56:05.674Z,39
2018-01-22T16:58:05.481Z,39
2018-01-22T17:00:06.003Z,39
2018-01-22T17:02:05.787Z,39.2
2018-01-22T17:04:05.271Z,39.2
2018-01-22T17:06:08.771Z,39.2
2018-01-22T17:08:05.744Z,39.2
2018-01-22T17:10:11.090Z,39.2
2018-01-22T17:12:05.883Z,39.2
2018-01-22T17:14:05.688Z,39.2
2018-01-22T17:16:10.205Z,39.1
2018-01-22T17:18:07.671Z,39.2
2018-01-22T17:20:05.752Z,39.1
2018-01-22T17:22:05.629Z,39.1
2018-01-22T17:24:05.416Z,39.1
2018-01-22T17:26:10.378Z,39.4
2018-01-22T17:28:05.170Z,39.3
2018-01-22T17:30:05.938Z,39.2
2018-01-22T17:32:08.273Z,39.3
2018-01-22T17:34:06.003Z,39.3
2018-01-22T17:36:05.854Z,39.5
2018-01-22T17:38:05.648Z,39.7
2018-01-22T17:40:05.430Z,40
2018-01-22T17:42:05.215Z,39.7
2018-01-22T17:44:06.114Z,39.7
2018-01-22T17:46:05.989Z,39.7
2018-01-22T17:48:06.185Z,39.5
2018-01-22T17:50:11.017Z,39.5
2018-01-22T17:52:08.287Z,39.5
2018-01-22T17:54:06.099Z,39.5
2018-01-22T17:56:06.102Z,39.5
2018-01-22T17:58:06.396Z,39.5
2018-01-22T18:00:07.686Z,39.3
2018-01-22T18:02:05.697Z,39.3
2018-01-22T18:04:05.828Z,39.3
2018-01-22T18:06:07.279Z,39.3
2018-01-22T18:08:21.055Z,39.4
2018-01-22T18:10:11.432Z,39.4
2018-01-22T18:12:06.012Z,39.4
2018-01-22T18:14:06.281Z,39.4
2018-01-22T18:16:05.749Z,39.8
2018-01-22T18:18:05.121Z,39.8
2018-01-22T18:20:06.237Z,39.8
2018-01-22T18:22:05.265Z,39.9
2018-01-22T18:24:07.566Z,39.7
2018-01-22T18:26:06.064Z,39.7
2018-01-22T18:28:05.049Z,39.7
2018-01-22T18:30:06.090Z,39.7
2018-01-22T18:32:07.687Z,39.8
2018-01-22T18:34:05.455Z,39.7
2018-01-22T18:36:09.669Z,39.8
2018-01-22T18:38:05.611Z,39.8
2018-01-22T18:40:06.583Z,39.8
2018-01-22T18:42:05.332Z,39.8
2018-01-22T18:44:08.369Z,40.4
2018-01-22T18:46:11.867Z,40.4
2018-01-22T18:48:05.520Z,40.4
2018-01-22T18:50:05.599Z,40.3
2018-01-22T18:52:05.383Z,40.3
2018-01-22T18:54:05.182Z,40
2018-01-22T18:56:11.330Z,40
2018-01-22T18:58:05.090Z,40.1
2018-01-22T19:00:08.411Z,40
2018-01-22T19:02:10.315Z,40
2018-01-22T19:04:06.090Z,40
2018-01-22T19:06:05.861Z,39.8
2018-01-22T19:08:08.376Z,39.7
2018-01-22T19:10:05.163Z,39.7
2018-01-22T19:12:05.714Z,39.7
2018-01-22T19:14:08.264Z,39.4
2018-01-22T19:16:05.629Z,39.5
2018-01-22T19:18:05.632Z,39.4
2018-01-22T19:20:05.403Z,39.4
2018-01-22T19:22:07.736Z,39.4
2018-01-22T19:24:05.502Z,39.4
2018-01-22T19:26:06.203Z,39.4
2018-01-22T19:28:08.559Z,39.4
2018-01-22T19:30:05.382Z,39.4
2018-01-22T19:32:05.208Z,39.4
2018-01-22T19:34:05.061Z,39.3
2018-01-22T19:36:05.903Z,39.4
2018-01-22T19:38:05.723Z,39.3
2018-01-22T19:40:08.061Z,39.3
2018-01-22T19:42:05.775Z,39.4
2018-01-22T19:44:05.528Z,39.3
2018-01-22T19:46:07.836Z,39.4
2018-01-22T19:48:08.126Z,39.1
2018-01-22T19:50:05.968Z,39.3
2018-01-22T19:52:05.793Z,39.3
2018-01-22T19:54:05.059Z,39.4
2018-01-22T19:56:05.656Z,39.1
2018-01-22T19:58:08.533Z,39.5
2018-01-22T20:00:05.513Z,39.5
2018-01-22T20:02:05.799Z,39.5
2018-01-22T20:04:05.605Z,39.5
2018-01-22T20:06:10.673Z,39.4
2018-01-22T20:08:05.406Z,39.4
2018-01-22T20:10:07.902Z,39.4
2018-01-22T20:12:05.772Z,39.4
2018-01-22T20:14:05.125Z,39.5
2018-01-22T20:16:08.417Z,39.4
2018-01-22T20:18:05.378Z,39.4
2018-01-22T20:20:05.759Z,39.4
2018-01-22T20:22:07.859Z,39.4
2018-01-22T20:24:10.658Z,39.4
2018-01-22T20:26:07.927Z,39.4
2018-01-22T20:28:08.288Z,39.4
2018-01-22T20:30:05.122Z,39.4
2018-01-22T20:32:06.207Z,39.4
2018-01-22T20:34:06.000Z,39.3
2018-01-22T20:36:05.291Z,39.4
2018-01-22T20:38:06.022Z,39.4
2018-01-22T20:40:05.734Z,39.4
2018-01-22T20:42:08.092Z,39.4
2018-01-22T20:44:15.994Z,39.3
2018-01-22T20:46:05.750Z,39.3
2018-01-22T20:48:05.482Z,39.3
2018-01-22T20:50:05.594Z,39.3
2018-01-22T20:52:05.384Z,39.3
2018-01-22T20:54:05.864Z,39.4
2018-01-22T20:56:05.630Z,39.3
2018-01-22T20:58:05.388Z,39.4
2018-01-22T21:00:05.904Z,39.3
2018-01-22T21:02:05.672Z,39.4
2018-01-22T21:04:05.784Z,39.3
2018-01-22T21:06:05.581Z,39.4
2018-01-22T21:08:05.318Z,39.3
2018-01-22T21:10:05.077Z,39.4
2018-01-22T21:12:05.900Z,39.3
2018-01-22T21:14:05.933Z,39.3
2018-01-22T21:16:07.794Z,39.3
2018-01-22T21:18:08.320Z,39.2
2018-01-22T21:20:05.120Z,39.2
2018-01-22T21:22:05.885Z,39.2
2018-01-22T21:24:05.694Z,39.2
2018-01-22T21:26:06.457Z,39.5
2018-01-22T21:28:06.296Z,39.3
2018-01-22T21:30:07.574Z,39.3
2018-01-22T21:32:05.581Z,39.2
2018-01-22T21:34:07.910Z,39.3
2018-01-22T21:36:06.185Z,39.3
2018-01-22T21:38:06.304Z,39
2018-01-22T21:40:05.148Z,39.2
2018-01-22T21:42:05.948Z,39.3
2018-01-22T21:44:06.007Z,39
2018-01-22T21:46:05.861Z,39.2
2018-01-22T21:48:05.207Z,39.2
2018-01-22T21:50:06.351Z,39
2018-01-22T21:52:05.132Z,39.2
2018-01-22T21:54:08.436Z,39.2
2018-01-22T21:56:05.798Z,39.2
2018-01-22T21:58:05.544Z,39.2
2018-01-22T22:00:05.498Z,39.1
2018-01-22T22:02:05.487Z,38.9
2018-01-22T22:04:05.269Z,39.2
2018-01-22T22:06:05.268Z,39
2018-01-22T22:08:06.337Z,39.2
2018-01-22T22:10:05.119Z,38.9
2018-01-22T22:12:05.917Z,39.1
2018-01-22T22:14:05.713Z,38.9
2018-01-22T22:16:05.577Z,39.1
2018-01-22T22:18:05.559Z,39.1
2018-01-22T22:20:05.334Z,39.1
2018-01-22T22:22:05.211Z,38.9
2018-01-22T22:24:05.493Z,38.9
2018-01-22T22:26:05.942Z,38.9
2018-01-22T22:28:07.771Z,39.1
2018-01-22T22:30:05.546Z,38.9
2018-01-22T22:32:05.342Z,39.1
2018-01-22T22:34:07.656Z,39.1
2018-01-22T22:36:05.411Z,39.1
2018-01-22T22:38:05.182Z,39.1
2018-01-22T22:40:10.563Z,39.1
2018-01-22T22:42:05.322Z,39.1
2018-01-22T22:44:07.661Z,39.1
2018-01-22T22:46:05.516Z,39.1
2018-01-22T22:48:08.978Z,38.9
2018-01-22T22:50:05.834Z,39.1
2018-01-22T22:52:05.701Z,39.1
2018-01-22T22:54:05.496Z,39.1
2018-01-22T22:56:05.814Z,39.1
2018-01-22T22:58:05.558Z,39.1
2018-01-22T23:00:05.306Z,39.1
2018-01-22T23:02:05.364Z,39.1
2018-01-22T23:04:05.207Z,39.1
2018-01-22T23:06:08.482Z,39
2018-01-22T23:08:08.080Z,39
2018-01-22T23:10:05.942Z,39
2018-01-22T23:12:12.850Z,39
2018-01-22T23:14:07.635Z,39.1
2018-01-22T23:16:05.413Z,39.1
2018-01-22T23:18:10.406Z,39
2018-01-22T23:20:05.221Z,39
2018-01-22T23:22:05.987Z,39
2018-01-22T23:24:05.922Z,39
2018-01-22T23:26:05.689Z,39
2018-01-22T23:28:05.900Z,39
2018-01-22T23:30:07.725Z,39
2018-01-22T23:32:05.764Z,39
2018-01-22T23:34:05.551Z,39
2018-01-22T23:36:05.386Z,39
2018-01-22T23:38:05.204Z,39
2018-01-22T23:40:05.960Z,39
2018-01-22T23:42:06.031Z,39
2018-01-22T23:44:06.093Z,38.9
2018-01-22T23:46:10.422Z,39
2018-01-22T23:48:05.143Z,39
2018-01-22T23:50:05.901Z,38.9
2018-01-22T23:52:05.695Z,38.9
2018-01-22T23:54:07.921Z,38.9
2018-01-22T23:56:05.483Z,38.9
2018-01-22T23:58:05.295Z,38.9
